createdAt,value
2022-09-12T00:00:43.435Z,13.20
2022-09-12T00:04:02.787Z,13.30
2022-09-12T00:07:01.537Z,13.30
2022-09-12T00:10:00.305Z,13.30
2022-09-12T00:12:58.889Z,13.30
2022-09-12T00:15:58.005Z,13.30
2022-09-12T00:18:56.771Z,13.40
2022-09-12T00:21:56.347Z,13.40
2022-09-12T00:24:55.069Z,13.40
2022-09-12T00:27:54.035Z,13.40
2022-09-12T00:30:52.502Z,13.50
2022-09-12T00:33:52.084Z,13.50
2022-09-12T00:36:50.696Z,13.40
2022-09-12T00:39:49.417Z,13.50
2022-09-12T00:42:47.935Z,13.50
2022-09-12T00:45:47.055Z,13.50
2022-09-12T00:48:52.954Z,13.50
2022-09-12T00:52:00.486Z,13.50
2022-09-12T00:55:06.793Z,13.50
2022-09-12T00:58:13.312Z,13.60
2022-09-12T01:01:11.766Z,13.60
2022-09-12T01:04:12.220Z,13.60
2022-09-12T01:07:11.627Z,13.60
2022-09-12T01:10:12.150Z,13.60
2022-09-12T01:13:11.664Z,13.70
2022-09-12T01:16:10.697Z,13.80
2022-09-12T01:19:44.359Z,13.80
2022-09-12T01:23:09.698Z,13.80
2022-09-12T01:26:41.887Z,13.80
2022-09-12T01:30:05.765Z,13.80
2022-09-12T01:33:21.873Z,13.80
2022-09-12T01:36:39.856Z,13.80
2022-09-12T01:39:59.712Z,13.80
2022-09-12T01:43:18.819Z,13.80
2022-09-12T01:46:32.624Z,13.80
2022-09-12T01:49:44.318Z,13.90
2022-09-12T01:52:51.824Z,13.90
2022-09-12T01:55:57.077Z,14.00
2022-09-12T01:59:04.535Z,14.10
2022-09-12T02:02:10.591Z,14.20
2022-09-12T02:05:17.138Z,14.40
2022-09-12T02:08:21.135Z,14.60
2022-09-12T02:11:20.957Z,14.60
2022-09-12T02:14:27.335Z,14.70
2022-09-12T02:17:27.106Z,14.80
2022-09-12T02:20:48.554Z,14.90
2022-09-12T02:23:51.894Z,15.00
2022-09-12T02:26:56.616Z,15.10
2022-09-12T02:29:55.363Z,15.20
2022-09-12T02:33:24.790Z,15.30
2022-09-12T02:36:41.047Z,15.30
2022-09-12T02:39:44.997Z,15.30
2022-09-12T02:42:44.134Z,15.30
2022-09-12T02:45:43.234Z,15.30
2022-09-12T02:48:44.459Z,15.30
2022-09-12T02:51:48.281Z,15.30
2022-09-12T02:54:47.302Z,15.30
2022-09-12T02:57:46.042Z,15.40
2022-09-12T03:01:01.191Z,15.50
2022-09-12T03:04:27.836Z,15.50
2022-09-12T03:07:54.960Z,15.60
2022-09-12T03:11:19.211Z,16.00
2022-09-12T03:14:38.422Z,16.00
2022-09-12T03:18:07.830Z,16.10
2022-09-12T03:21:24.812Z,16.30
2022-09-12T03:24:38.458Z,16.50
2022-09-12T03:27:41.811Z,16.70
2022-09-12T03:30:42.938Z,16.90
2022-09-12T03:33:41.418Z,17.10
2022-09-12T03:36:41.629Z,17.30
2022-09-12T03:39:40.219Z,17.40
2022-09-12T03:42:39.993Z,17.40
2022-09-12T03:45:39.622Z,17.40
2022-09-12T03:48:38.615Z,17.40
2022-09-12T03:51:37.340Z,17.30
2022-09-12T03:54:36.223Z,17.30
2022-09-12T03:57:34.852Z,17.20
2022-09-12T04:00:33.792Z,17.10
2022-09-12T04:03:32.173Z,16.90
2022-09-12T04:06:31.920Z,16.60
2022-09-12T04:09:30.497Z,16.40
2022-09-12T04:12:30.616Z,16.20
2022-09-12T04:15:29.033Z,16.00
2022-09-12T04:18:28.671Z,15.90
2022-09-12T04:21:28.209Z,16.00
2022-09-12T04:24:27.174Z,15.90
2022-09-12T04:27:25.593Z,15.80
2022-09-12T04:30:24.375Z,15.80
2022-09-12T04:33:23.338Z,15.70
2022-09-12T04:36:23.330Z,15.70
2022-09-12T04:39:21.770Z,15.80
2022-09-12T04:42:20.862Z,15.70
2022-09-12T04:45:19.903Z,15.80
2022-09-12T04:48:18.859Z,16.00
2022-09-12T04:51:21.885Z,16.20
2022-09-12T04:54:21.467Z,16.40
2022-09-12T04:57:20.071Z,16.40
2022-09-12T05:00:18.955Z,16.40
2022-09-12T05:03:17.472Z,16.50
2022-09-12T05:06:26.644Z,16.70
2022-09-12T05:09:25.135Z,16.90
2022-09-12T05:12:23.887Z,17.00
2022-09-12T05:15:22.414Z,17.20
2022-09-12T05:18:21.795Z,17.50
2022-09-12T05:21:23.815Z,17.60
2022-09-12T05:24:22.989Z,17.70
2022-09-12T05:27:21.340Z,17.80
2022-09-12T05:30:20.144Z,17.90
2022-09-12T05:33:22.011Z,18.00
2022-09-12T05:36:25.927Z,18.00
2022-09-12T05:39:25.248Z,18.10
2022-09-12T05:42:24.044Z,18.00
2022-09-12T05:45:22.555Z,18.00
2022-09-12T05:48:24.765Z,17.80
2022-09-12T05:51:27.117Z,17.70
2022-09-12T05:54:30.853Z,17.80
2022-09-12T05:57:30.397Z,17.90
2022-09-12T06:00:33.281Z,17.80
2022-09-12T06:03:32.039Z,17.70
2022-09-12T06:06:32.582Z,17.70
2022-09-12T06:09:30.952Z,17.70
2022-09-12T06:12:30.740Z,17.80
2022-09-12T06:15:29.126Z,17.80
2022-09-12T06:18:27.885Z,17.80
2022-09-12T06:21:27.396Z,18.00
2022-09-12T06:24:26.242Z,17.90
2022-09-12T06:27:24.759Z,18.20
2022-09-12T06:30:25.504Z,18.50
2022-09-12T06:33:24.022Z,18.80
2022-09-12T06:36:27.576Z,19.20
2022-09-12T06:39:28.735Z,19.50
2022-09-12T06:42:27.707Z,19.80
2022-09-12T06:45:26.783Z,20.20
2022-09-12T06:48:25.673Z,20.50
2022-09-12T06:51:25.146Z,20.70
2022-09-12T06:54:23.971Z,20.90
2022-09-12T06:57:22.667Z,21.00
2022-09-12T07:00:21.525Z,21.00
2022-09-12T07:03:20.242Z,21.10
2022-09-12T07:06:21.402Z,21.00
2022-09-12T07:09:19.777Z,21.00
2022-09-12T07:12:18.567Z,21.10
2022-09-12T07:15:17.597Z,21.30
2022-09-12T07:18:16.375Z,21.50
2022-09-12T07:21:16.222Z,21.70
2022-09-12T07:24:14.954Z,21.80
2022-09-12T07:27:13.717Z,21.70
2022-09-12T07:30:12.873Z,21.50
2022-09-12T07:33:11.280Z,21.40
2022-09-12T07:36:13.935Z,21.20
2022-09-12T07:39:12.894Z,21.00
2022-09-12T07:42:13.128Z,21.00
2022-09-12T07:45:11.857Z,20.90
2022-09-12T07:48:10.992Z,20.90
2022-09-12T07:51:11.447Z,21.00
2022-09-12T07:54:10.703Z,21.10
2022-09-12T07:57:09.298Z,21.20
2022-09-12T08:00:09.049Z,21.30
2022-09-12T08:03:07.999Z,21.00
2022-09-12T08:06:10.776Z,20.90
2022-09-12T08:09:09.444Z,20.80
2022-09-12T08:12:08.436Z,20.60
2022-09-12T08:15:07.339Z,20.40
2022-09-12T08:18:06.214Z,20.10
2022-09-12T08:21:07.253Z,19.90
2022-09-12T08:24:07.467Z,19.40
2022-09-12T08:27:08.392Z,19.00
2022-09-12T08:30:07.561Z,18.80
2022-09-12T08:33:08.480Z,18.80
2022-09-12T08:36:11.986Z,18.70
2022-09-12T08:39:14.975Z,18.80
2022-09-12T08:42:27.219Z,18.90
2022-09-12T08:45:37.459Z,18.90
2022-09-12T08:48:36.955Z,18.80
2022-09-12T08:51:36.637Z,18.80
2022-09-12T08:54:35.637Z,18.80
2022-09-12T08:57:34.527Z,18.80
2022-09-12T09:00:43.632Z,18.80
2022-09-12T09:04:05.814Z,18.70
2022-09-12T09:07:35.382Z,18.70
2022-09-12T09:10:57.886Z,18.70
2022-09-12T09:14:44.173Z,18.80
2022-09-12T09:17:45.860Z,18.70
2022-09-12T09:21:03.950Z,18.70
2022-09-12T09:24:09.010Z,18.60
2022-09-12T09:27:39.268Z,18.50
2022-09-12T09:30:37.190Z,18.60
2022-09-12T09:33:36.244Z,18.60
2022-09-12T09:36:58.808Z,18.70
2022-09-12T09:40:09.668Z,18.70
2022-09-12T09:43:20.896Z,18.70
2022-09-12T09:46:19.857Z,18.70
2022-09-12T09:49:19.030Z,18.70
2022-09-12T09:52:25.378Z,18.80
2022-09-12T09:55:29.162Z,18.80
2022-09-12T09:58:31.640Z,18.80
2022-09-12T10:01:30.328Z,18.70
2022-09-12T10:04:32.835Z,18.50
2022-09-12T10:07:31.470Z,18.50
2022-09-12T10:10:30.247Z,18.40
2022-09-12T10:13:35.496Z,18.40
2022-09-12T10:16:48.744Z,18.30
2022-09-12T10:19:52.702Z,18.30
2022-09-12T10:23:24.470Z,18.40
2022-09-12T10:26:23.159Z,18.40
2022-09-12T10:29:30.494Z,18.50
2022-09-12T10:32:38.221Z,18.50
2022-09-12T10:35:54.340Z,18.40
2022-09-12T10:39:03.444Z,18.50
2022-09-12T10:42:04.778Z,18.50
2022-09-12T10:45:03.631Z,18.50
2022-09-12T10:48:21.342Z,18.50
2022-09-12T10:51:29.399Z,18.50
2022-09-12T10:54:29.113Z,18.50
2022-09-12T10:57:36.498Z,18.60
2022-09-12T11:00:41.478Z,18.60
2022-09-12T11:04:00.516Z,18.60
2022-09-12T11:07:27.484Z,18.80
2022-09-12T11:10:52.357Z,18.80
2022-09-12T11:14:09.275Z,18.90
2022-09-12T11:17:28.780Z,19.00
2022-09-12T11:20:55.505Z,19.10
2022-09-12T11:24:17.021Z,19.00
2022-09-12T11:27:33.870Z,19.00
2022-09-12T11:30:47.711Z,19.00
2022-09-12T11:33:50.424Z,19.00
2022-09-12T11:37:10.438Z,18.90
2022-09-12T11:40:38.606Z,18.70
2022-09-12T11:43:56.329Z,18.70
2022-09-12T11:46:55.217Z,18.60
2022-09-12T11:49:55.510Z,18.40
2022-09-12T11:53:01.122Z,18.40
2022-09-12T11:56:09.982Z,18.40
2022-09-12T11:59:33.514Z,18.30
2022-09-12T12:02:53.222Z,18.30
2022-09-12T12:06:00.482Z,18.20
2022-09-12T12:08:59.287Z,18.20
2022-09-12T12:12:01.662Z,18.20
2022-09-12T12:15:01.660Z,18.10
2022-09-12T12:18:03.097Z,18.00
2022-09-12T12:21:21.996Z,17.90
2022-09-12T12:24:26.341Z,17.80
2022-09-12T12:27:48.262Z,17.80
2022-09-12T12:31:03.049Z,17.70
2022-09-12T12:34:04.648Z,17.70
2022-09-12T12:37:39.217Z,17.60
2022-09-12T12:40:39.718Z,17.40
2022-09-12T12:43:38.787Z,17.40
2022-09-12T12:46:39.867Z,17.30
2022-09-12T12:49:38.952Z,17.30
2022-09-12T12:53:07.903Z,17.20
2022-09-12T12:56:41.765Z,17.00
2022-09-12T12:59:49.736Z,17.00
2022-09-12T13:03:24.799Z,16.90
2022-09-12T13:06:36.918Z,16.70
2022-09-12T13:09:52.739Z,16.60
2022-09-12T13:12:53.334Z,16.50
2022-09-12T13:15:53.078Z,16.40
2022-09-12T13:18:52.510Z,16.20
2022-09-12T13:22:02.141Z,16.20
2022-09-12T13:25:00.818Z,16.10
2022-09-12T13:28:18.966Z,15.90
2022-09-12T13:31:24.825Z,15.90
2022-09-12T13:34:29.893Z,15.80
2022-09-12T13:37:50.839Z,15.70
2022-09-12T13:41:17.419Z,15.60
2022-09-12T13:44:20.529Z,15.50
2022-09-12T13:47:33.100Z,15.50
2022-09-12T13:50:40.490Z,15.40
2022-09-12T13:53:47.958Z,15.30
2022-09-12T13:56:50.512Z,15.30
2022-09-12T13:59:49.907Z,15.20
2022-09-12T14:02:50.639Z,15.10
2022-09-12T14:05:57.892Z,15.10
2022-09-12T14:08:58.076Z,15.00
2022-09-12T14:11:58.363Z,15.00
2022-09-12T14:14:57.652Z,15.00
2022-09-12T14:18:01.886Z,14.90
2022-09-12T14:21:10.969Z,14.90
2022-09-12T14:24:13.506Z,14.80
2022-09-12T14:27:12.357Z,14.70
2022-09-12T14:30:31.010Z,14.70
2022-09-12T14:33:32.348Z,14.70
2022-09-12T14:36:35.306Z,14.70
2022-09-12T14:39:41.121Z,14.60
2022-09-12T14:42:43.547Z,14.50
2022-09-12T14:45:42.536Z,14.50
2022-09-12T14:48:50.739Z,14.40
2022-09-12T14:52:06.601Z,14.40
2022-09-12T14:55:30.169Z,14.30
2022-09-12T14:58:30.716Z,14.30
2022-09-12T15:01:32.154Z,14.30
2022-09-12T15:04:50.505Z,14.30
2022-09-12T15:07:56.021Z,14.30
2022-09-12T15:10:54.802Z,14.30
2022-09-12T15:13:53.918Z,14.20
2022-09-12T15:16:52.455Z,14.20
2022-09-12T15:19:51.131Z,14.20
2022-09-12T15:22:49.719Z,14.10
2022-09-12T15:25:51.396Z,14.10
2022-09-12T15:28:53.079Z,14.10
2022-09-12T15:31:55.650Z,14.00
2022-09-12T15:34:55.476Z,14.00
2022-09-12T15:37:59.600Z,14.00
2022-09-12T15:40:59.524Z,14.00
2022-09-12T15:44:01.791Z,14.00
2022-09-12T15:47:00.457Z,14.00
2022-09-12T15:50:01.856Z,14.00
2022-09-12T15:53:00.582Z,13.90
2022-09-12T15:55:59.593Z,13.90
2022-09-12T15:58:59.819Z,13.90
2022-09-12T16:02:02.780Z,13.90
2022-09-12T16:05:01.540Z,13.90
2022-09-12T16:08:01.308Z,13.90
2022-09-12T16:11:04.340Z,13.90
2022-09-12T16:14:04.347Z,13.90
2022-09-12T16:17:03.408Z,13.80
2022-09-12T16:20:02.529Z,13.80
2022-09-12T16:23:02.584Z,13.70
2022-09-12T16:26:05.150Z,13.70
2022-09-12T16:29:04.335Z,13.70
2022-09-12T16:32:03.613Z,13.70
2022-09-12T16:35:02.598Z,13.70
2022-09-12T16:38:05.375Z,13.60
2022-09-12T16:41:06.699Z,13.60
2022-09-12T16:44:05.491Z,13.60
2022-09-12T16:47:04.173Z,13.60
2022-09-12T16:50:03.126Z,13.60
2022-09-12T16:53:02.027Z,13.60
2022-09-12T16:56:00.910Z,13.60
2022-09-12T16:58:59.439Z,13.60
2022-09-12T17:01:58.303Z,13.60
2022-09-12T17:04:56.962Z,13.60
2022-09-12T17:07:55.752Z,13.50
2022-09-12T17:10:54.357Z,13.50
2022-09-12T17:14:10.694Z,13.40
2022-09-12T17:17:12.630Z,13.40
2022-09-12T17:20:11.600Z,13.40
2022-09-12T17:23:10.594Z,13.40
2022-09-12T17:26:10.683Z,13.50
2022-09-12T17:29:09.115Z,13.40
2022-09-12T17:32:07.981Z,13.50
2022-09-12T17:35:07.861Z,13.50
2022-09-12T17:38:07.014Z,13.40
2022-09-12T17:41:08.993Z,13.40
2022-09-12T17:44:08.330Z,13.40
2022-09-12T17:47:07.390Z,13.30
2022-09-12T17:50:30.407Z,13.30
2022-09-12T17:53:26.481Z,13.30
2022-09-12T17:56:28.406Z,13.30
2022-09-12T17:59:26.947Z,13.30
2022-09-12T18:02:25.706Z,13.20
2022-09-12T18:05:24.157Z,13.20
2022-09-12T18:08:24.765Z,13.10
2022-09-12T18:11:23.491Z,13.00
2022-09-12T18:14:22.289Z,13.00
2022-09-12T18:17:20.708Z,13.00
2022-09-12T18:20:19.632Z,13.00
2022-09-12T18:23:19.777Z,12.90
2022-09-12T18:26:18.574Z,12.80
2022-09-12T18:29:17.608Z,12.70
2022-09-12T18:32:16.338Z,12.70
2022-09-12T18:35:14.960Z,12.50
2022-09-12T18:38:13.734Z,12.40
2022-09-12T18:41:15.680Z,12.40
2022-09-12T18:44:14.413Z,12.30
2022-09-12T18:47:12.953Z,12.30
2022-09-12T18:50:11.748Z,12.20
2022-09-12T18:53:10.509Z,12.20
2022-09-12T18:56:12.568Z,12.10
2022-09-12T18:59:13.522Z,12.00
2022-09-12T19:02:17.078Z,12.00
2022-09-12T19:05:15.514Z,11.90
2022-09-12T19:08:14.317Z,11.90
2022-09-12T19:11:13.103Z,11.90
2022-09-12T19:14:11.827Z,11.90
2022-09-12T19:17:10.703Z,11.90
2022-09-12T19:20:09.725Z,11.80
2022-09-12T19:23:08.162Z,11.90
2022-09-12T19:26:10.307Z,11.80
2022-09-12T19:29:08.994Z,11.80
2022-09-12T19:32:09.031Z,11.80
2022-09-12T19:35:08.018Z,11.70
2022-09-12T19:38:06.781Z,11.60
2022-09-12T19:41:07.383Z,11.60
2022-09-12T19:44:07.837Z,11.50
2022-09-12T19:47:06.310Z,11.50
2022-09-12T19:50:05.548Z,11.50
2022-09-12T19:53:04.616Z,11.40
2022-09-12T19:56:05.841Z,11.40
2022-09-12T19:59:04.463Z,11.30
2022-09-12T20:02:03.256Z,11.20
2022-09-12T20:05:02.044Z,11.20
2022-09-12T20:08:01.112Z,11.20
2022-09-12T20:10:59.477Z,11.20
2022-09-12T20:13:58.293Z,11.20
2022-09-12T20:16:56.719Z,11.10
2022-09-12T20:19:56.042Z,11.10
2022-09-12T20:22:54.873Z,11.10
2022-09-12T20:25:53.585Z,11.10
2022-09-12T20:28:52.198Z,11.10
2022-09-12T20:31:54.932Z,11.10
2022-09-12T20:34:56.681Z,11.00
2022-09-12T20:37:55.439Z,11.00
2022-09-12T20:40:53.955Z,11.00
2022-09-12T20:43:55.372Z,11.00
2022-09-12T20:46:54.019Z,11.00
2022-09-12T20:49:55.834Z,11.00
2022-09-12T20:52:54.280Z,10.90
2022-09-12T20:56:07.332Z,10.90
2022-09-12T20:59:06.271Z,10.90
2022-09-12T21:02:05.052Z,10.80
2022-09-12T21:05:03.340Z,10.80
2022-09-12T21:08:02.235Z,10.70
2022-09-12T21:11:01.144Z,10.70
2022-09-12T21:13:59.813Z,10.70
2022-09-12T21:16:58.245Z,10.70
2022-09-12T21:19:56.996Z,10.70
2022-09-12T21:22:55.316Z,10.70
2022-09-12T21:25:57.007Z,10.60
2022-09-12T21:28:55.407Z,10.60
2022-09-12T21:31:54.045Z,10.60
2022-09-12T21:34:52.427Z,10.50
2022-09-12T21:37:53.560Z,10.50
2022-09-12T21:40:51.803Z,10.50
2022-09-12T21:43:50.651Z,10.50
2022-09-12T21:46:48.975Z,10.50
2022-09-12T21:49:47.673Z,10.50
2022-09-12T21:52:49.328Z,10.50
2022-09-12T21:55:48.031Z,10.60
2022-09-12T21:58:55.253Z,10.50
2022-09-12T22:01:55.220Z,10.50
2022-09-12T22:04:53.495Z,10.50
2022-09-12T22:07:52.937Z,10.40
2022-09-12T22:10:51.229Z,10.40
2022-09-12T22:13:49.935Z,10.40
2022-09-12T22:16:48.627Z,10.30
2022-09-12T22:23:01.517Z,10.30
2022-09-12T22:26:02.739Z,10.20
2022-09-12T22:29:01.665Z,10.20
2022-09-12T22:32:01.277Z,10.20
2022-09-12T22:34:59.969Z,10.20
2022-09-12T22:37:58.519Z,10.20
2022-09-12T22:40:57.378Z,10.30
2022-09-12T22:43:56.804Z,10.20
2022-09-12T22:46:55.116Z,10.10
2022-09-12T22:49:54.080Z,10.10
2022-09-12T22:52:53.715Z,10.00
2022-09-12T22:55:52.344Z,10.00
2022-09-12T22:58:51.330Z,10.00
2022-09-12T23:01:50.003Z,9.90
2022-09-12T23:04:54.661Z,9.90
2022-09-12T23:07:53.301Z,9.80
2022-09-12T23:10:51.630Z,9.80
2022-09-12T23:13:51.836Z,9.70
2022-09-12T23:16:50.425Z,9.70
2022-09-12T23:19:49.176Z,10.40
2022-09-12T23:22:56.874Z,9.60
2022-09-12T23:26:04.706Z,9.60
2022-09-12T23:29:04.949Z,9.50
2022-09-12T23:32:04.653Z,9.50
2022-09-12T23:35:04.090Z,9.40
2022-09-12T23:38:02.893Z,9.40
2022-09-12T23:41:03.318Z,9.40
2022-09-12T23:44:02.191Z,9.30
2022-09-12T23:47:00.592Z,9.30
2022-09-12T23:49:59.352Z,9.30
2022-09-12T23:52:57.789Z,9.20
2022-09-12T23:55:56.640Z,9.20
2022-09-12T23:58:55.030Z,9.20
